Holly Ridge, Mississippi
Current Conditions -  °F | °C
As of 7:53 PM on Tuesday 21 Oct 2014 (Local Time) from KGLH Reporting Station
Clear Clear  
Wind Chill: 66°   Ceiling: Unl
Heat Index: 66°   Visibility: 10mi
Dew Point: 57°   Wind: 7mph
Humidity: 73%   Direction: 10°N
Pressure: 30.04"   Gusts: NA
Location:  33.45°N, 90.75°W
Report Text: KGLH 220053Z AUTO 01006KT 10SM CLR 19/14 A3004 RMK AO2 SLP178 T01890139
Loading
Personal Weather Stations






























Interactive Weather Map New forecast layout! Learn more

10-Day Weather Forecast

Advertisements
Track Severe Weather on mobile